createdAt,value
2023-03-21T00:01:13.356Z,69.51
2023-03-21T00:04:50.891Z,69.86
2023-03-21T00:08:20.575Z,69.93
2023-03-21T00:11:47.457Z,69.78
2023-03-21T00:15:15.015Z,70.06
2023-03-21T00:18:42.926Z,69.96
2023-03-21T00:22:10.054Z,70.07
2023-03-21T00:25:38.163Z,70.03
2023-03-21T00:29:06.088Z,70.24
2023-03-21T00:32:35.555Z,70.08
2023-03-21T00:36:05.697Z,70.11
2023-03-21T00:39:35.422Z,70.10
2023-03-21T00:43:05.332Z,69.86
2023-03-21T00:46:44.054Z,70.11
2023-03-21T00:50:15.158Z,70.18
2023-03-21T00:53:42.018Z,69.87
2023-03-21T00:57:09.207Z,70.36
2023-03-21T01:00:39.545Z,70.17
2023-03-21T01:04:11.340Z,69.92
2023-03-21T01:07:38.647Z,70.30
2023-03-21T01:11:08.557Z,70.52
2023-03-21T01:14:35.627Z,70.52
2023-03-21T01:18:02.770Z,70.27
2023-03-21T01:21:33.558Z,70.57
2023-03-21T01:25:19.197Z,70.87
2023-03-21T01:28:48.809Z,70.82
2023-03-21T01:32:16.957Z,70.71
2023-03-21T01:35:55.323Z,70.70
2023-03-21T01:39:29.439Z,70.69
2023-03-21T01:42:57.145Z,70.76
2023-03-21T01:46:47.751Z,70.66
2023-03-21T01:50:38.312Z,70.76
2023-03-21T01:54:27.461Z,70.69
2023-03-21T01:58:05.831Z,70.59
2023-03-21T02:01:45.153Z,71.00
2023-03-21T02:05:15.786Z,70.86
2023-03-21T02:08:43.259Z,70.58
2023-03-21T02:12:16.715Z,70.80
2023-03-21T02:15:53.884Z,71.03
2023-03-21T02:20:22.350Z,70.66
2023-03-21T02:24:28.822Z,71.14
2023-03-21T02:28:02.182Z,71.10
2023-03-21T02:31:42.255Z,71.41
2023-03-21T02:35:26.850Z,71.24
2023-03-21T02:39:04.408Z,71.22
2023-03-21T02:42:43.388Z,71.55
2023-03-21T02:46:17.533Z,71.49
2023-03-21T02:49:49.503Z,71.56
2023-03-21T02:53:21.345Z,71.23
2023-03-21T02:56:51.322Z,71.32
2023-03-21T03:00:21.875Z,71.27
2023-03-21T03:03:50.430Z,71.02
2023-03-21T03:07:29.978Z,70.95
2023-03-21T03:11:10.642Z,70.98
2023-03-21T03:15:02.614Z,71.02
2023-03-21T03:18:36.913Z,71.10
2023-03-21T03:22:08.361Z,70.93
2023-03-21T03:25:46.384Z,71.40
2023-03-21T03:29:19.966Z,71.07
2023-03-21T03:32:51.909Z,71.28
2023-03-21T03:36:31.426Z,71.36
2023-03-21T03:40:05.921Z,71.63
2023-03-21T03:43:41.733Z,71.57
2023-03-21T03:47:22.862Z,71.49
2023-03-21T03:51:02.817Z,71.90
2023-03-21T03:54:46.708Z,71.76
2023-03-21T03:58:22.874Z,71.55
2023-03-21T04:01:50.839Z,71.51
2023-03-21T04:05:21.685Z,71.68
2023-03-21T04:08:48.602Z,71.49
2023-03-21T04:12:16.323Z,71.45
2023-03-21T04:15:56.385Z,71.30
2023-03-21T04:19:24.048Z,71.55
2023-03-21T04:22:51.445Z,71.42
2023-03-21T04:26:18.819Z,71.21
2023-03-21T04:29:57.661Z,71.11
2023-03-21T04:33:48.367Z,71.33
2023-03-21T04:37:15.829Z,71.46
2023-03-21T04:40:45.625Z,71.53
2023-03-21T04:44:14.008Z,71.68
2023-03-21T04:47:42.203Z,71.61
2023-03-21T04:51:09.988Z,72.14
2023-03-21T04:54:37.915Z,71.83
2023-03-21T04:58:05.796Z,71.88
2023-03-21T05:01:34.321Z,72.08
2023-03-21T05:05:07.116Z,71.68
2023-03-21T05:08:36.612Z,72.09
2023-03-21T05:12:03.886Z,71.95
2023-03-21T05:15:33.939Z,71.67
2023-03-21T05:19:05.100Z,71.95
2023-03-21T05:22:40.760Z,71.74
2023-03-21T05:26:14.530Z,71.64
2023-03-21T05:29:55.651Z,71.60
2023-03-21T05:33:25.567Z,71.81
2023-03-21T05:36:53.172Z,71.80
2023-03-21T05:40:21.628Z,71.86
2023-03-21T05:43:49.328Z,72.12
2023-03-21T05:47:17.508Z,71.98
2023-03-21T05:50:46.635Z,72.20
2023-03-21T05:54:17.497Z,71.95
2023-03-21T05:57:52.068Z,72.34
2023-03-21T06:01:25.734Z,72.54
2023-03-21T06:05:09.253Z,72.36
2023-03-21T06:08:37.229Z,72.50
2023-03-21T06:12:03.836Z,72.29
2023-03-21T06:15:49.930Z,72.38
2023-03-21T06:19:19.977Z,72.24
2023-03-21T06:23:12.033Z,72.19
2023-03-21T06:26:38.981Z,72.12
2023-03-21T06:30:07.375Z,72.09
2023-03-21T06:33:44.417Z,71.99
2023-03-21T06:37:12.639Z,71.94
2023-03-21T06:40:42.453Z,72.24
2023-03-21T06:44:09.633Z,72.33
2023-03-21T06:47:44.539Z,72.46
2023-03-21T06:51:23.385Z,72.21
2023-03-21T06:55:05.234Z,72.47
2023-03-21T06:58:32.550Z,72.40
2023-03-21T07:01:59.853Z,72.47
2023-03-21T07:05:27.321Z,72.21
2023-03-21T07:08:54.735Z,72.38
2023-03-21T07:12:23.455Z,72.69
2023-03-21T07:16:08.752Z,72.52
2023-03-21T07:19:35.348Z,72.44
2023-03-21T07:23:02.203Z,72.07
2023-03-21T07:26:30.007Z,72.20
2023-03-21T07:29:58.014Z,72.19
2023-03-21T07:33:27.777Z,72.09
2023-03-21T07:36:57.914Z,72.33
2023-03-21T07:40:25.618Z,72.13
2023-03-21T07:43:52.722Z,71.84
2023-03-21T07:47:20.237Z,72.15
2023-03-21T07:50:47.636Z,72.15
2023-03-21T07:54:14.447Z,72.18
2023-03-21T07:57:41.823Z,72.28
2023-03-21T08:01:08.746Z,72.35
2023-03-21T08:04:36.368Z,72.28
2023-03-21T08:08:03.764Z,72.37
2023-03-21T08:11:31.746Z,72.51
2023-03-21T08:15:01.072Z,72.45
2023-03-21T08:18:29.260Z,72.19
2023-03-21T08:22:01.190Z,71.89
2023-03-21T08:25:28.184Z,71.52
2023-03-21T08:28:56.066Z,71.71
2023-03-21T08:32:28.733Z,71.55
2023-03-21T08:35:55.351Z,71.25
2023-03-21T08:39:22.840Z,71.34
2023-03-21T08:42:50.585Z,71.01
2023-03-21T08:46:17.213Z,70.75
2023-03-21T08:49:45.927Z,70.68
2023-03-21T08:53:12.818Z,70.69
2023-03-21T08:56:39.937Z,70.67
2023-03-21T09:00:13.215Z,70.57
2023-03-21T09:03:39.852Z,70.43
2023-03-21T09:07:06.608Z,70.40
2023-03-21T09:10:33.602Z,70.02
2023-03-21T09:14:00.907Z,69.85
2023-03-21T09:17:27.916Z,69.93
2023-03-21T09:20:55.792Z,69.48
2023-03-21T09:24:23.053Z,69.40
2023-03-21T09:27:49.895Z,69.21
2023-03-21T09:31:22.122Z,69.05
2023-03-21T09:34:49.237Z,69.06
2023-03-21T09:38:17.711Z,69.03
2023-03-21T09:42:01.745Z,68.62
2023-03-21T09:45:38.502Z,68.44
2023-03-21T09:49:10.154Z,68.37
2023-03-21T09:52:49.028Z,67.96
2023-03-21T09:56:17.406Z,68.02
2023-03-21T09:59:45.214Z,67.53
2023-03-21T10:03:24.001Z,67.46
2023-03-21T10:07:02.130Z,67.14
2023-03-21T10:10:33.972Z,67.15
2023-03-21T10:14:05.214Z,67.03
2023-03-21T10:17:36.519Z,67.09
2023-03-21T10:21:04.258Z,66.78
2023-03-21T10:24:34.690Z,66.52
2023-03-21T10:28:03.988Z,66.27
2023-03-21T10:31:32.846Z,66.21
2023-03-21T10:35:01.882Z,65.95
2023-03-21T10:38:29.775Z,65.79
2023-03-21T10:41:56.828Z,65.72
2023-03-21T10:45:26.006Z,65.38
2023-03-21T10:48:56.096Z,65.44
2023-03-21T10:52:28.854Z,65.59
2023-03-21T10:55:59.125Z,64.97
2023-03-21T10:59:29.876Z,65.05
2023-03-21T11:02:58.844Z,64.80
2023-03-21T11:06:32.044Z,64.77
2023-03-21T11:10:00.582Z,64.60
2023-03-21T11:13:34.425Z,64.03
2023-03-21T11:16:59.296Z,64.31
2023-03-21T11:20:29.005Z,64.32
2023-03-21T11:23:58.681Z,64.12
2023-03-21T11:27:29.727Z,63.84
2023-03-21T11:30:59.161Z,63.59
2023-03-21T11:34:32.546Z,63.40
2023-03-21T11:38:00.299Z,63.31
2023-03-21T11:41:30.670Z,63.12
2023-03-21T11:45:06.454Z,62.69
2023-03-21T11:48:39.300Z,61.82
2023-03-21T11:52:20.901Z,62.05
2023-03-21T11:55:58.812Z,62.03
2023-03-21T11:59:39.158Z,61.96
2023-03-21T12:03:38.188Z,61.72
2023-03-21T12:07:31.144Z,61.84
2023-03-21T12:11:04.968Z,62.02
2023-03-21T12:14:44.141Z,61.85
2023-03-21T12:18:23.225Z,61.83
2023-03-21T12:22:03.417Z,61.74
2023-03-21T12:25:35.541Z,61.39
2023-03-21T12:29:24.512Z,61.51
2023-03-21T12:33:04.502Z,61.30
2023-03-21T12:36:58.012Z,61.14
2023-03-21T12:40:43.816Z,60.95
2023-03-21T12:44:16.226Z,61.06
2023-03-21T12:47:47.031Z,61.04
2023-03-21T12:51:17.898Z,61.05
2023-03-21T12:54:50.123Z,61.12
2023-03-21T12:58:23.232Z,60.97
2023-03-21T13:01:53.515Z,60.96
2023-03-21T13:05:28.872Z,60.94
2023-03-21T13:09:02.118Z,60.93
2023-03-21T13:12:55.930Z,60.58
2023-03-21T13:16:27.229Z,60.61
2023-03-21T13:20:05.223Z,60.86
2023-03-21T13:23:39.770Z,60.99
2023-03-21T13:27:20.731Z,60.80
2023-03-21T13:30:49.046Z,60.43
2023-03-21T13:34:17.151Z,60.23
2023-03-21T13:37:52.279Z,60.03
2023-03-21T13:41:23.333Z,59.86
2023-03-21T13:44:54.274Z,59.32
2023-03-21T13:48:32.896Z,59.20
2023-03-21T13:52:01.262Z,59.23
2023-03-21T13:55:31.602Z,59.22
2023-03-21T13:59:11.548Z,59.37
2023-03-21T14:02:39.638Z,59.41
2023-03-21T14:06:07.539Z,59.32
2023-03-21T14:09:38.820Z,59.19
2023-03-21T14:13:10.969Z,59.35
2023-03-21T14:16:38.744Z,59.37
2023-03-21T14:20:17.065Z,59.64
2023-03-21T14:23:45.055Z,59.68
2023-03-21T14:27:13.018Z,59.42
2023-03-21T14:30:42.469Z,59.14
2023-03-21T14:34:11.322Z,58.87
2023-03-21T14:37:44.423Z,58.36
2023-03-21T14:41:23.926Z,58.24
2023-03-21T14:44:56.213Z,58.30
2023-03-21T14:48:30.561Z,58.53
2023-03-21T14:52:01.096Z,58.25
2023-03-21T14:55:28.780Z,57.98
2023-03-21T14:58:56.507Z,57.88
2023-03-21T15:02:27.993Z,57.46
2023-03-21T15:05:55.897Z,57.39
2023-03-21T15:09:25.647Z,57.27
2023-03-21T15:12:57.223Z,57.26
2023-03-21T15:16:26.361Z,57.14
2023-03-21T15:19:54.054Z,56.98
2023-03-21T15:23:33.266Z,57.16
2023-03-21T15:27:04.229Z,57.17
2023-03-21T15:30:34.416Z,57.11
2023-03-21T15:34:03.017Z,57.26
2023-03-21T15:37:35.072Z,57.39
2023-03-21T15:41:31.722Z,57.43
2023-03-21T15:45:03.355Z,57.36
2023-03-21T15:48:31.239Z,57.56
2023-03-21T15:52:03.599Z,57.35
2023-03-21T15:55:41.080Z,57.15
2023-03-21T15:59:13.943Z,57.34
2023-03-21T16:02:43.669Z,57.29
2023-03-21T16:06:22.927Z,57.37
2023-03-21T16:09:50.243Z,57.54
2023-03-21T16:13:18.640Z,57.35
2023-03-21T16:16:46.265Z,57.49
2023-03-21T16:20:21.611Z,57.59
2023-03-21T16:23:48.774Z,57.41
2023-03-21T16:27:24.400Z,57.52
2023-03-21T16:30:51.045Z,57.64
2023-03-21T16:34:17.681Z,57.72
2023-03-21T16:37:44.855Z,57.67
2023-03-21T16:41:14.841Z,57.75
2023-03-21T16:44:41.602Z,57.89
2023-03-21T16:48:12.570Z,57.94
2023-03-21T16:51:40.418Z,58.20
2023-03-21T16:55:09.063Z,58.21
2023-03-21T16:58:35.528Z,58.33
2023-03-21T17:02:14.020Z,58.56
2023-03-21T17:05:41.132Z,58.69
2023-03-21T17:09:08.294Z,58.73
2023-03-21T17:12:35.130Z,58.90
2023-03-21T17:16:07.199Z,59.13
2023-03-21T17:19:36.214Z,59.16
2023-03-21T17:23:03.693Z,59.31
2023-03-21T17:26:33.512Z,59.48
2023-03-21T17:30:01.711Z,59.69
2023-03-21T17:33:30.885Z,59.62
2023-03-21T17:36:58.587Z,59.83
2023-03-21T17:40:30.131Z,59.86
2023-03-21T17:43:58.073Z,60.00
2023-03-21T17:47:26.054Z,60.05
2023-03-21T17:50:56.213Z,60.18
2023-03-21T17:54:23.264Z,60.06
2023-03-21T17:57:50.643Z,60.38
2023-03-21T18:01:17.764Z,60.43
2023-03-21T18:04:44.651Z,60.64
2023-03-21T18:08:13.048Z,60.63
2023-03-21T18:11:41.431Z,60.80
2023-03-21T18:15:14.608Z,60.72
2023-03-21T18:18:45.268Z,60.81
2023-03-21T18:22:18.296Z,60.91
2023-03-21T18:25:46.147Z,60.82
2023-03-21T18:30:17.498Z,60.95
2023-03-21T18:33:03.553Z,60.93
2023-03-21T18:36:30.801Z,60.98
2023-03-21T18:39:58.073Z,61.05
2023-03-21T18:47:14.612Z,61.17
2023-03-21T18:50:42.079Z,61.37
2023-03-21T18:54:08.552Z,61.34
2023-03-21T18:57:38.246Z,61.57
2023-03-21T19:01:07.065Z,61.51
2023-03-21T19:04:37.488Z,61.51
2023-03-21T19:08:04.962Z,61.78
2023-03-21T19:11:33.531Z,61.81
2023-03-21T19:15:06.112Z,61.73
2023-03-21T19:18:53.385Z,61.79
2023-03-21T19:22:24.581Z,62.01
2023-03-21T19:25:51.801Z,62.01
2023-03-21T19:29:22.659Z,61.90
2023-03-21T19:32:51.202Z,62.10
2023-03-21T19:36:22.897Z,62.25
2023-03-21T19:39:51.430Z,62.28
2023-03-21T19:43:32.284Z,62.43
2023-03-21T19:47:02.288Z,62.47
2023-03-21T19:50:57.952Z,62.33
2023-03-21T19:54:25.601Z,62.46
2023-03-21T19:57:53.894Z,62.45
2023-03-21T20:01:23.251Z,62.66
2023-03-21T20:04:54.437Z,62.64
2023-03-21T20:08:25.169Z,62.90
2023-03-21T20:11:53.858Z,62.85
2023-03-21T20:15:22.150Z,63.17
2023-03-21T20:18:52.805Z,62.98
2023-03-21T20:22:31.164Z,63.34
2023-03-21T20:26:13.686Z,63.39
2023-03-21T20:30:10.414Z,63.41
2023-03-21T20:33:38.924Z,63.41
2023-03-21T20:37:06.979Z,63.54
2023-03-21T20:40:34.046Z,63.53
2023-03-21T20:47:49.507Z,63.44
2023-03-21T20:55:09.684Z,63.52
2023-03-21T20:58:59.336Z,63.79
2023-03-21T21:02:30.136Z,63.78
2023-03-21T21:05:59.375Z,63.87
2023-03-21T21:09:26.335Z,63.89
2023-03-21T21:12:53.726Z,63.84
2023-03-21T21:16:24.356Z,63.92
2023-03-21T21:19:53.183Z,63.99
2023-03-21T21:23:20.227Z,64.18
2023-03-21T21:26:47.686Z,64.32
2023-03-21T21:30:17.098Z,64.19
2023-03-21T21:33:46.402Z,64.28
2023-03-21T21:37:15.591Z,64.59
2023-03-21T21:40:43.227Z,64.57
2023-03-21T21:44:10.050Z,64.86
2023-03-21T21:47:37.268Z,64.75
2023-03-21T21:51:06.346Z,64.66
2023-03-21T21:54:37.115Z,64.75
2023-03-21T21:58:05.330Z,64.77
2023-03-21T22:01:34.951Z,64.88
2023-03-21T22:05:02.173Z,64.92
2023-03-21T22:08:29.894Z,64.70
2023-03-21T22:11:57.253Z,64.82
2023-03-21T22:15:24.173Z,65.00
2023-03-21T22:18:52.115Z,65.11
2023-03-21T22:22:22.822Z,65.15
2023-03-21T22:25:54.291Z,65.23
2023-03-21T22:29:21.447Z,65.19
2023-03-21T22:33:06.387Z,65.36
2023-03-21T22:36:35.332Z,65.53
2023-03-21T22:40:06.654Z,65.52
2023-03-21T22:43:41.328Z,65.64
2023-03-21T22:47:10.820Z,65.78
2023-03-21T22:50:41.148Z,65.85
2023-03-21T22:54:08.907Z,65.94
2023-03-21T22:57:35.843Z,65.91
2023-03-21T23:01:06.646Z,65.88
2023-03-21T23:04:34.966Z,65.95
2023-03-21T23:08:02.248Z,65.92
2023-03-21T23:11:30.893Z,65.78
2023-03-21T23:14:58.482Z,66.00
2023-03-21T23:18:26.970Z,66.23
2023-03-21T23:21:53.379Z,65.68
2023-03-21T23:25:21.269Z,66.30
2023-03-21T23:28:48.876Z,66.07
2023-03-21T23:32:16.805Z,66.03
2023-03-21T23:35:46.417Z,66.07
2023-03-21T23:39:13.449Z,66.11
2023-03-21T23:42:43.065Z,66.41
2023-03-21T23:46:11.808Z,66.51
2023-03-21T23:49:39.283Z,66.63
2023-03-21T23:53:06.754Z,66.54
2023-03-21T23:56:33.928Z,66.35
